Butts AAF (Fort Carson) Air Field
KFCS : now visible

Airfield :











YOU CAN JOIN US ON...

 
LOGIN :

Register | Disclaimer

   EN    FR    IT 

 









Legend :    VFR   Marginal VFR   IFR   Intensive IFR   Very Intensive IFR
Visi :
Ceiling :
>= 8 km
>= 3000ft
5 to 8 km
1000 to 3000 ft
1500m to 5 km
500 to 1000 ft
800 to 1500m
200 to 500 ft
< 800m
< 200 ft
Symbols :   Thunderstorms  Fog  Heavy snow  Heavy precipitations  Wind > 20 kt






- Airport Elevation : 5838 ft


KFCS - Butts AAF (Fort Carson) Air Field

CURRENT METAR :
  • 100356Z AUTO 13009KT 10SM OVC031 06/M01 A3011 RMK AO2 SLP210 T00551012 $

EXPIRED METARs :
  • 100256Z AUTO 12007KT 10SM OVC031 06/M01 A3010 RMK AO2 SLP212 T00571015 53009 $
  • 100156Z AUTO 13006KT 10SM OVC033 06/M02 A3009 RMK AO2 SLP209 T00591017 $

TAF TAF KFCS
Valid from the 09 at 21:00 until the 11 at 03:00 UTC


092107Z 0921/1103 16009KT 9999 BKN025 QNH3003INS
BECMG 0923/0924 12010KT 9999 BKN080 QNH3003INS
BECMG 1005/1006 15010KT 9999 BKN025 QNH3009INS
BECMG 1009/1010 15010KT 8000 -RASN OVC010 630109 QNH3008INS TX08/0923Z TN02/1012Z
KZDV FIR / North America



MET'MAP, your aeronautical weather chart ! - Copyright ORBIFLY December 2007 - Disclaimer

ORBIFLY MET'MAP TEAM :

Programming & Development : Alexandra Zaïnal
Concept & original design : Baudouin d'Aumeries
Assistance for programming : Marc-Olivier Méhu
Technical & hardware support : Manuel Goepfert

Contact : metmap@orbifly.com




SOURCES & CREDITS :

   NOAA       Earth
Advisory